Climatologie pour Saint-Brevin les Pins
Jour • Résumé pour juin 27, 2017 Système :  Métrique    Anglais   Mixte
« - 1 jour
+ 1 jour »
Jour Semaine Mois Année Personnalisé
  Maximum : Minimum : Moyenne :
Température sous abri : 22.6 °C 16.7 °C 19 °C
Point de rosée : 18.4 °C 15.4 °C 16.6 °C
Humidité : 96 % 71 % 86 %
Vitesse du vent : 20.9 km/h 0.0 km/h 5.5 km/h
Rafale : 33.8 km/h - -
Direction :- - WSW
Pression : 1008.7 hPa 1003.6 hPa -
Précipitations : 0.0 mm    
Historical Graphs
 
 
Tableau de données pour juin 27, 2017
Heure Tempé Pt rosée Pression Vent Vitesse Rafale Humidité Taux pluie (/hr) Soleil
00:00 19.5 °C 17.5 °C 1008.7 hPa Calm   8.0 km/h 88 % 0.0 mm 0 W/m2
00:05 19.3 °C 17.5 °C 1008.7 hPa Calm   4.8 km/h 89 % 0.0 mm 0 W/m2
00:10 19.3 °C 17.5 °C 1008.7 hPa NW 1.6 km/h 4.8 km/h 89 % 0.0 mm 0 W/m2
00:15 19.2 °C 17.4 °C 1008.7 hPa Calm   4.8 km/h 89 % 0.0 mm 0 W/m2
00:20 19.1 °C 17.4 °C 1008.7 hPa NNW 4.8 km/h 4.8 km/h 90 % 0.0 mm 0 W/m2
00:25 18.9 °C 17.4 °C 1008.7 hPa Calm   6.4 km/h 91 % 0.0 mm 0 W/m2
00:30 18.9 °C 17.4 °C 1008.4 hPa NNW 1.6 km/h 6.4 km/h 91 % 0.0 mm 0 W/m2
00:35 18.8 °C 17.5 °C 1008.7 hPa Calm   4.8 km/h 92 % 0.0 mm 0 W/m2
00:40 18.8 °C 17.3 °C 1008.4 hPa NW 3.2 km/h 4.8 km/h 91 % 0.0 mm 0 W/m2
00:45 18.8 °C 17.5 °C 1008.4 hPa Calm   4.8 km/h 92 % 0.0 mm 0 W/m2
00:50 18.8 °C 17.5 °C 1008.4 hPa Calm   4.8 km/h 92 % 0.0 mm 0 W/m2
00:55 18.7 °C 17.5 °C 1008.4 hPa Calm   1.6 km/h 93 % 0.0 mm 0 W/m2
01:00 18.4 °C 17.3 °C 1008.4 hPa Calm     93 % 0.0 mm 0 W/m2
01:05 18.3 °C 17.1 °C 1008.4 hPa Calm     93 % 0.0 mm 0 W/m2
01:10 18.1 °C 17.1 °C 1008.4 hPa Calm   3.2 km/h 94 % 0.0 mm 0 W/m2
01:15 18.3 °C 17.5 °C 1008.4 hPa Calm   3.2 km/h 95 % 0.0 mm 0 W/m2
01:20 18.1 °C 17.1 °C 1008.4 hPa Calm   3.2 km/h 94 % 0.0 mm 0 W/m2
01:25 17.9 °C 17.0 °C 1008.4 hPa Calm     94 % 0.0 mm 0 W/m2
01:30 17.9 °C 17.1 °C 1008.4 hPa Calm     95 % 0.0 mm 0 W/m2
01:35 17.9 °C 17.1 °C 1008.4 hPa Calm     95 % 0.0 mm 0 W/m2
01:40 17.8 °C 17.0 °C 1008.4 hPa Calm     95 % 0.0 mm 0 W/m2
01:50 17.7 °C 16.9 °C 1008.4 hPa Calm   3.2 km/h 95 % 0.0 mm 0 W/m2
01:55 17.7 °C 16.9 °C 1008.4 hPa NW 1.6 km/h 4.8 km/h 95 % 0.0 mm 0 W/m2
02:00 17.7 °C 16.9 °C 1008.4 hPa Calm   4.8 km/h 95 % 0.0 mm 0 W/m2
02:05 17.6 °C 17.0 °C 1008.4 hPa Calm   3.2 km/h 96 % 0.0 mm 0 W/m2
02:10 17.5 °C 16.7 °C 1008.4 hPa NW 1.6 km/h 3.2 km/h 95 % 0.0 mm 0 W/m2
02:15 17.6 °C 17.0 °C 1008.4 hPa Calm   4.8 km/h 96 % 0.0 mm 0 W/m2
02:20 17.6 °C 17.0 °C 1008.4 hPa NNW 1.6 km/h 6.4 km/h 96 % 0.0 mm 0 W/m2
02:25 17.7 °C 17.1 °C 1008.4 hPa NNW 1.6 km/h 6.4 km/h 96 % 0.0 mm 0 W/m2
02:30 17.9 °C 17.2 °C 1008.4 hPa Calm   8.0 km/h 96 % 0.0 mm 0 W/m2
02:35 18.0 °C 17.4 °C 1008.4 hPa NNE 4.8 km/h 8.0 km/h 96 % 0.0 mm 0 W/m2
02:40 18.2 °C 17.5 °C 1008.4 hPa Calm   8.0 km/h 96 % 0.0 mm 0 W/m2
02:45 18.2 °C 17.6 °C 1008.4 hPa NNE 6.4 km/h 9.7 km/h 96 % 0.0 mm 0 W/m2
02:55 18.2 °C 17.6 °C 1008.4 hPa ENE 1.6 km/h 9.7 km/h 96 % 0.0 mm 0 W/m2
03:00 18.1 °C 17.3 °C 1008.4 hPa Calm   8.0 km/h 95 % 0.0 mm 0 W/m2
03:05 18.0 °C 17.4 °C 1008.0 hPa NNE 3.2 km/h 6.4 km/h 96 % 0.0 mm 0 W/m2
03:10 17.9 °C 17.2 °C 1008.4 hPa NNE 4.8 km/h 6.4 km/h 96 % 0.0 mm 0 W/m2
03:15 17.9 °C 17.2 °C 1008.0 hPa Calm   6.4 km/h 96 % 0.0 mm 0 W/m2
03:20 17.8 °C 17.1 °C 1008.4 hPa NNE 1.6 km/h 4.8 km/h 96 % 0.0 mm 0 W/m2
03:25 17.7 °C 17.1 °C 1008.0 hPa Calm   6.4 km/h 96 % 0.0 mm 0 W/m2
03:30 17.6 °C 17.0 °C 1008.0 hPa Calm   8.0 km/h 96 % 0.0 mm 0 W/m2
03:35 17.5 °C 16.9 °C 1008.0 hPa NNW 3.2 km/h 11.3 km/h 96 % 0.0 mm 0 W/m2
03:40 17.4 °C 16.8 °C 1008.0 hPa NNE 3.2 km/h 11.3 km/h 96 % 0.0 mm 0 W/m2
03:50 17.3 °C 16.6 °C 1008.0 hPa North 3.2 km/h 9.7 km/h 96 % 0.0 mm 0 W/m2
03:55 17.2 °C 16.4 °C 1008.0 hPa NNW 1.6 km/h 8.0 km/h 95 % 0.0 mm 0 W/m2
04:00 17.2 °C 16.4 °C 1008.0 hPa NNW 6.4 km/h 8.0 km/h 95 % 0.0 mm 0 W/m2
04:05 17.1 °C 16.3 °C 1008.0 hPa North 4.8 km/h 8.0 km/h 95 % 0.0 mm 0 W/m2
04:10 17.1 °C 16.2 °C 1008.0 hPa North 3.2 km/h 8.0 km/h 95 % 0.0 mm 0 W/m2
04:15 17.0 °C 16.2 °C 1008.0 hPa Calm   6.4 km/h 95 % 0.0 mm 0 W/m2
04:20 17.0 °C 16.2 °C 1008.0 hPa Calm   6.4 km/h 95 % 0.0 mm 0 W/m2
04:25 16.9 °C 16.0 °C 1007.7 hPa Calm   8.0 km/h 94 % 0.0 mm 0 W/m2
04:30 16.9 °C 16.0 °C 1007.7 hPa WNW 3.2 km/h 8.0 km/h 94 % 0.0 mm 0 W/m2
04:35 16.9 °C 15.9 °C 1007.7 hPa North 3.2 km/h 8.0 km/h 94 % 0.0 mm 0 W/m2
04:40 16.9 °C 15.9 °C 1007.7 hPa Calm   8.0 km/h 94 % 0.0 mm 0 W/m2
04:45 16.9 °C 15.9 °C 1007.3 hPa North 1.6 km/h 8.0 km/h 94 % 0.0 mm 0 W/m2
04:50 16.9 °C 15.7 °C 1007.3 hPa Calm   8.0 km/h 93 % 0.0 mm 0 W/m2
04:55 16.9 °C 15.7 °C 1007.3 hPa Calm   8.0 km/h 93 % 0.0 mm 0 W/m2
05:00 16.8 °C 15.7 °C 1007.3 hPa Calm   4.8 km/h 93 % 0.0 mm 0 W/m2
05:05 16.8 °C 15.7 °C 1007.3 hPa NNE 1.6 km/h 4.8 km/h 93 % 0.0 mm 0 W/m2
05:10 16.8 °C 15.6 °C 1007.3 hPa Calm   4.8 km/h 93 % 0.0 mm 0 W/m2
05:15 16.8 °C 15.6 °C 1007.3 hPa Calm   4.8 km/h 93 % 0.0 mm 0 W/m2
05:20 16.7 °C 15.5 °C 1007.3 hPa North 4.8 km/h 6.4 km/h 93 % 0.0 mm 0 W/m2
05:25 16.8 °C 15.6 °C 1007.3 hPa Calm   6.4 km/h 93 % 0.0 mm 0 W/m2
05:30 16.7 °C 15.6 °C 1007.3 hPa Calm   4.8 km/h 93 % 0.0 mm 0 W/m2
05:35 16.7 °C 15.6 °C 1007.3 hPa Calm   1.6 km/h 93 % 0.0 mm 0 W/m2
05:40 16.7 °C 15.5 °C 1007.3 hPa Calm   3.2 km/h 93 % 0.0 mm 0 W/m2
05:45 16.7 °C 15.6 °C 1007.3 hPa Calm   4.8 km/h 93 % 0.0 mm 0 W/m2
05:50 16.8 °C 15.6 °C 1007.3 hPa North 1.6 km/h 4.8 km/h 93 % 0.0 mm 0 W/m2
05:55 16.8 °C 15.7 °C 1007.0 hPa North 3.2 km/h 6.4 km/h 93 % 0.0 mm 0 W/m2
06:00 16.8 °C 15.5 °C 1007.0 hPa Calm   6.4 km/h 92 % 0.0 mm 0 W/m2
06:05 16.9 °C 15.6 °C 1007.0 hPa NNE 3.2 km/h 6.4 km/h 92 % 0.0 mm 0 W/m2
06:10 16.9 °C 15.6 °C 1007.0 hPa NNE 3.2 km/h 4.8 km/h 92 % 0.0 mm 0 W/m2
06:15 16.9 °C 15.5 °C 1007.0 hPa Calm   4.8 km/h 91 % 0.0 mm 0 W/m2
06:20 16.9 °C 15.4 °C 1007.0 hPa Calm   3.2 km/h 91 % 0.0 mm 0 W/m2
06:25 16.9 °C 15.6 °C 1007.0 hPa Calm   6.4 km/h 92 % 0.0 mm 0 W/m2
06:30 16.9 °C 15.5 °C 1006.7 hPa NE 1.6 km/h 6.4 km/h 91 % 0.0 mm 0 W/m2
06:35 17.1 °C 15.6 °C 1007.0 hPa Calm   4.8 km/h 91 % 0.0 mm 0 W/m2
06:40 17.0 °C 15.5 °C 1006.7 hPa NE 1.6 km/h 6.4 km/h 91 % 0.0 mm 0 W/m2
06:45 17.0 °C 15.5 °C 1006.7 hPa Calm   6.4 km/h 91 % 0.0 mm 5 W/m2
06:50 17.0 °C 15.5 °C 1006.7 hPa NE 1.6 km/h 4.8 km/h 91 % 0.0 mm 9 W/m2
06:55 17.0 °C 15.5 °C 1006.7 hPa NE 1.6 km/h 6.4 km/h 91 % 0.0 mm 11 W/m2
07:00 17.1 °C 15.6 °C 1007.0 hPa Calm   9.7 km/h 91 % 0.0 mm 14 W/m2
07:05 17.1 °C 15.6 °C 1006.7 hPa NE 1.6 km/h 9.7 km/h 91 % 0.0 mm 23 W/m2
07:10 17.1 °C 15.5 °C 1006.7 hPa NE 3.2 km/h 6.4 km/h 90 % 0.0 mm 28 W/m2
07:15 17.2 °C 15.5 °C 1006.7 hPa NE 3.2 km/h 8.0 km/h 90 % 0.0 mm 33 W/m2
07:20 17.2 °C 15.6 °C 1006.7 hPa NNE 3.2 km/h 8.0 km/h 90 % 0.0 mm 40 W/m2
07:30 17.3 °C 15.5 °C 1006.7 hPa Calm   8.0 km/h 89 % 0.0 mm 37 W/m2
07:35 17.4 °C 15.6 °C 1006.7 hPa Calm   4.8 km/h 89 % 0.0 mm 30 W/m2
07:40 17.4 °C 15.6 °C 1006.7 hPa Calm   4.8 km/h 89 % 0.0 mm 33 W/m2
07:45 17.4 °C 15.6 °C 1007.0 hPa Calm   3.2 km/h 89 % 0.0 mm 32 W/m2
07:50 17.5 °C 15.7 °C 1007.0 hPa Calm     89 % 0.0 mm 30 W/m2
07:55 17.6 °C 15.9 °C 1007.0 hPa Calm     90 % 0.0 mm 28 W/m2
08:00 17.6 °C 15.9 °C 1007.0 hPa Calm     90 % 0.0 mm 25 W/m2
08:05 17.5 °C 15.7 °C 1007.0 hPa Calm     89 % 0.0 mm 35 W/m2
08:10 17.5 °C 15.7 °C 1007.0 hPa Calm     89 % 0.0 mm 39 W/m2
08:15 17.6 °C 15.8 °C 1007.0 hPa Calm   3.2 km/h 89 % 0.0 mm 44 W/m2
08:20 17.7 °C 15.9 °C 1007.0 hPa Calm   9.7 km/h 89 % 0.0 mm 60 W/m2
08:25 17.8 °C 15.8 °C 1007.0 hPa WSW 4.8 km/h 9.7 km/h 88 % 0.0 mm 56 W/m2
08:30 17.9 °C 15.9 °C 1007.0 hPa WSW 1.6 km/h 6.4 km/h 88 % 0.0 mm 47 W/m2
08:35 17.9 °C 15.9 °C 1007.3 hPa Calm   6.4 km/h 88 % 0.0 mm 37 W/m2
08:40 17.9 °C 15.7 °C 1007.0 hPa West 4.8 km/h 6.4 km/h 87 % 0.0 mm 63 W/m2
08:45 18.1 °C 16.0 °C 1007.0 hPa Calm   6.4 km/h 88 % 0.0 mm 76 W/m2
08:50 18.1 °C 16.1 °C 1007.0 hPa Calm   6.4 km/h 88 % 0.0 mm 83 W/m2
08:55 18.2 °C 16.2 °C 1007.0 hPa Calm   4.8 km/h 88 % 0.0 mm 77 W/m2
09:00 18.2 °C 16.0 °C 1007.0 hPa Calm   4.8 km/h 87 % 0.0 mm 90 W/m2
09:05 18.3 °C 16.5 °C 1007.0 hPa Calm   4.8 km/h 89 % 0.0 mm 125 W/m2
09:10 18.4 °C 16.4 °C 1007.0 hPa Calm   4.8 km/h 88 % 0.0 mm 162 W/m2
09:15 18.6 °C 16.4 °C 1007.0 hPa Calm   6.4 km/h 87 % 0.0 mm 141 W/m2
09:20 18.7 °C 16.5 °C 1007.0 hPa West 3.2 km/h 6.4 km/h 87 % 0.0 mm 142 W/m2
09:25 18.6 °C 16.2 °C 1007.0 hPa WNW 3.2 km/h 6.4 km/h 86 % 0.0 mm 165 W/m2
09:30 18.7 °C 16.3 °C 1006.7 hPa Calm   6.4 km/h 86 % 0.0 mm 171 W/m2
09:35 18.9 °C 16.5 °C 1006.7 hPa NW 1.6 km/h 6.4 km/h 86 % 0.0 mm 169 W/m2
09:40 19.1 °C 16.7 °C 1006.7 hPa WNW 6.4 km/h 9.7 km/h 86 % 0.0 mm 185 W/m2
09:45 19.1 °C 16.5 °C 1006.7 hPa West 8.0 km/h 9.7 km/h 85 % 0.0 mm 192 W/m2
09:50 19.1 °C 16.3 °C 1006.7 hPa NW 1.6 km/h 8.0 km/h 84 % 0.0 mm 204 W/m2
09:55 19.2 °C 16.4 °C 1006.7 hPa Calm   8.0 km/h 84 % 0.0 mm 241 W/m2
10:00 19.4 °C 16.9 °C 1007.0 hPa West 3.2 km/h 8.0 km/h 85 % 0.0 mm 262 W/m2
10:05 19.6 °C 16.8 °C 1007.0 hPa Calm   8.0 km/h 84 % 0.0 mm 211 W/m2
10:10 19.6 °C 16.6 °C 1007.0 hPa Calm   6.4 km/h 83 % 0.0 mm 148 W/m2
10:15 19.5 °C 16.7 °C 1007.0 hPa NW 3.2 km/h 4.8 km/h 84 % 0.0 mm 121 W/m2
10:25 19.3 °C 16.3 °C 1007.0 hPa WNW 4.8 km/h 4.8 km/h 83 % 0.0 mm 134 W/m2
10:30 19.2 °C 16.3 °C 1007.0 hPa Calm   6.4 km/h 83 % 0.0 mm 95 W/m2
10:35 19.2 °C 16.2 °C 1007.0 hPa West 4.8 km/h 6.4 km/h 83 % 0.0 mm 76 W/m2
10:40 19.1 °C 16.3 °C 1007.0 hPa Calm   4.8 km/h 84 % 0.0 mm 132 W/m2
10:45 19.1 °C 16.3 °C 1006.7 hPa Calm   4.8 km/h 84 % 0.0 mm 313 W/m2
10:50 19.3 °C 16.6 °C 1006.7 hPa Calm   4.8 km/h 84 % 0.0 mm 274 W/m2
10:55 19.7 °C 16.9 °C 1006.7 hPa West 3.2 km/h 4.8 km/h 84 % 0.0 mm 255 W/m2
11:00 19.8 °C 16.9 °C 1006.7 hPa West 3.2 km/h 4.8 km/h 83 % 0.0 mm 214 W/m2
11:05 19.8 °C 16.6 °C 1006.7 hPa Calm   6.4 km/h 82 % 0.0 mm 229 W/m2
11:10 19.8 °C 16.8 °C 1006.7 hPa West 3.2 km/h 6.4 km/h 83 % 0.0 mm 209 W/m2
11:15 19.9 °C 16.6 °C 1006.7 hPa West 4.8 km/h 6.4 km/h 81 % 0.0 mm 302 W/m2
11:20 20.3 °C 17.0 °C 1006.3 hPa WNW 4.8 km/h 6.4 km/h 81 % 0.0 mm 490 W/m2
11:25 20.6 °C 16.8 °C 1006.3 hPa WNW 3.2 km/h 6.4 km/h 79 % 0.0 mm 385 W/m2
11:30 20.8 °C 17.2 °C 1006.3 hPa Calm   6.4 km/h 80 % 0.0 mm 306 W/m2
11:35 20.7 °C 17.1 °C 1006.3 hPa WNW 4.8 km/h 8.0 km/h 80 % 0.0 mm 264 W/m2
11:40 20.4 °C 16.8 °C 1006.3 hPa WNW 4.8 km/h 14.5 km/h 80 % 0.0 mm 299 W/m2
11:45 20.2 °C 17.0 °C 1006.3 hPa West 6.4 km/h 14.5 km/h 82 % 0.0 mm 174 W/m2
11:50 19.8 °C 16.9 °C 1006.3 hPa West 11.3 km/h 11.3 km/h 83 % 0.0 mm 179 W/m2
11:55 19.7 °C 16.9 °C 1006.3 hPa West 3.2 km/h 11.3 km/h 84 % 0.0 mm 237 W/m2
12:00 19.7 °C 16.9 °C 1006.3 hPa Calm   14.5 km/h 84 % 0.0 mm 218 W/m2
12:05 19.6 °C 16.8 °C 1006.3 hPa SW 9.7 km/h 17.7 km/h 84 % 0.0 mm 301 W/m2
12:10 19.7 °C 17.1 °C 1006.3 hPa West 3.2 km/h 17.7 km/h 85 % 0.0 mm 255 W/m2
12:15 19.7 °C 17.1 °C 1006.3 hPa NW 14.5 km/h 14.5 km/h 85 % 0.0 mm 339 W/m2
12:20 19.6 °C 17.0 °C 1006.3 hPa West 4.8 km/h 16.1 km/h 85 % 0.0 mm 329 W/m2
12:25 19.6 °C 17.0 °C 1006.3 hPa WSW 11.3 km/h 19.3 km/h 85 % 0.0 mm 251 W/m2
12:30 19.5 °C 17.1 °C 1006.3 hPa West 6.4 km/h 22.5 km/h 86 % 0.0 mm 304 W/m2
12:40 21.0 °C 17.8 °C 1006.0 hPa West 3.2 km/h 17.7 km/h 82 % 0.0 mm 963 W/m2
12:45 21.4 °C 17.8 °C 1006.0 hPa WNW 6.4 km/h 16.1 km/h 80 % 0.0 mm 847 W/m2
12:50 22.0 °C 18.4 °C 1006.0 hPa NW 9.7 km/h 17.7 km/h 80 % 0.0 mm 831 W/m2
12:55 22.4 °C 18.4 °C 1006.0 hPa WNW 8.0 km/h 17.7 km/h 78 % 0.0 mm 851 W/m2
13:00 22.5 °C 18.3 °C 1006.0 hPa WSW 8.0 km/h 16.1 km/h 77 % 0.0 mm 1048 W/m2
13:05 22.6 °C 18.4 °C 1006.0 hPa WSW 11.3 km/h 17.7 km/h 77 % 0.0 mm 1181 W/m2
13:10 22.6 °C 18.0 °C 1006.0 hPa West 14.5 km/h 17.7 km/h 75 % 0.0 mm 561 W/m2
13:15 21.7 °C 17.7 °C 1006.0 hPa West 11.3 km/h 17.7 km/h 78 % 0.0 mm 545 W/m2
13:25 21.8 °C 18.2 °C 1006.0 hPa WSW 6.4 km/h 16.1 km/h 80 % 0.0 mm 552 W/m2
13:30 21.5 °C 17.7 °C 1006.0 hPa WSW 16.1 km/h 17.7 km/h 79 % 0.0 mm 404 W/m2
13:40 20.8 °C 17.0 °C 1006.0 hPa South 9.7 km/h 19.3 km/h 79 % 0.0 mm 492 W/m2
13:45 20.4 °C 17.1 °C 1006.0 hPa WSW 11.3 km/h 20.9 km/h 81 % 0.0 mm 459 W/m2
13:50 20.5 °C 17.1 °C 1006.0 hPa West 6.4 km/h 20.9 km/h 81 % 0.0 mm 387 W/m2
13:55 21.2 °C 17.6 °C 1006.0 hPa SW 9.7 km/h 20.9 km/h 80 % 0.0 mm 387 W/m2
14:00 22.4 °C 17.6 °C 1006.0 hPa WSW 12.9 km/h 20.9 km/h 74 % 0.0 mm 1183 W/m2
14:05 21.7 °C 17.3 °C 1006.0 hPa West 16.1 km/h 24.1 km/h 76 % 0.0 mm 643 W/m2
14:10 21.3 °C 17.1 °C 1006.0 hPa West 14.5 km/h 24.1 km/h 77 % 0.0 mm 596 W/m2
14:15 20.9 °C 17.1 °C 1005.6 hPa SW 12.9 km/h 22.5 km/h 79 % 0.0 mm 664 W/m2
14:20 21.8 °C 17.8 °C 1005.6 hPa West 17.7 km/h 22.5 km/h 78 % 0.0 mm 749 W/m2
14:25 21.6 °C 17.1 °C 1006.0 hPa West 4.8 km/h 22.5 km/h 76 % 0.0 mm 494 W/m2
14:30 21.6 °C 17.1 °C 1005.6 hPa WSW 17.7 km/h 22.5 km/h 76 % 0.0 mm 636 W/m2
14:35 21.4 °C 17.0 °C 1005.6 hPa WNW 9.7 km/h 22.5 km/h 76 % 0.0 mm 585 W/m2
14:40 21.3 °C 16.9 °C 1005.6 hPa WSW 17.7 km/h 22.5 km/h 76 % 0.0 mm 775 W/m2
14:45 21.6 °C 17.2 °C 1005.6 hPa SW 9.7 km/h 19.3 km/h 76 % 0.0 mm 779 W/m2
14:55 21.6 °C 17.4 °C 1005.6 hPa West 12.9 km/h 20.9 km/h 77 % 0.0 mm 439 W/m2
15:00 20.8 °C 16.7 °C 1005.6 hPa WSW 9.7 km/h 24.1 km/h 77 % 0.0 mm 411 W/m2
15:05 21.2 °C 17.2 °C 1005.3 hPa West 4.8 km/h 24.1 km/h 78 % 0.0 mm 689 W/m2
15:10 21.7 °C 16.9 °C 1005.3 hPa NW 8.0 km/h 17.7 km/h 74 % 0.0 mm 854 W/m2
15:15 21.4 °C 16.8 °C 1005.3 hPa West 12.9 km/h 17.7 km/h 75 % 0.0 mm 432 W/m2
15:20 20.9 °C 16.6 °C 1005.3 hPa WSW 9.7 km/h 19.3 km/h 76 % 0.0 mm 497 W/m2
15:25 21.3 °C 16.9 °C 1005.3 hPa WSW 11.3 km/h 20.9 km/h 76 % 0.0 mm 1144 W/m2
15:30 21.7 °C 17.0 °C 1005.3 hPa WSW 11.3 km/h 20.9 km/h 75 % 0.0 mm 984 W/m2
15:35 22.4 °C 16.9 °C 1005.3 hPa WSW 11.3 km/h 20.9 km/h 71 % 0.0 mm 902 W/m2
15:40 22.2 °C 16.9 °C 1005.3 hPa West 4.8 km/h 20.9 km/h 72 % 0.0 mm 436 W/m2
15:45 21.7 °C 16.8 °C 1005.3 hPa West 12.9 km/h 17.7 km/h 74 % 0.0 mm 810 W/m2
15:50 22.4 °C 17.1 °C 1005.3 hPa West 6.4 km/h 16.1 km/h 72 % 0.0 mm 860 W/m2
15:55 21.9 °C 16.9 °C 1005.3 hPa WSW 17.7 km/h 22.5 km/h 73 % 0.0 mm 863 W/m2
16:00 21.7 °C 16.7 °C 1005.3 hPa West 4.8 km/h 22.5 km/h 73 % 0.0 mm 847 W/m2
16:05 21.4 °C 17.0 °C 1005.6 hPa West 11.3 km/h 22.5 km/h 76 % 0.0 mm 404 W/m2
16:10 20.7 °C 16.5 °C 1005.6 hPa West 6.4 km/h 22.5 km/h 77 % 0.0 mm 290 W/m2
16:15 20.3 °C 16.8 °C 1005.6 hPa West 6.4 km/h 24.1 km/h 80 % 0.0 mm 260 W/m2
16:25 19.7 °C 16.4 °C 1005.6 hPa WSW 19.3 km/h 24.1 km/h 81 % 0.0 mm 362 W/m2
16:30 19.8 °C 16.5 °C 1005.6 hPa WSW 11.3 km/h 27.4 km/h 81 % 0.0 mm 283 W/m2
16:35 19.7 °C 16.3 °C 1005.6 hPa WNW 6.4 km/h 27.4 km/h 81 % 0.0 mm 330 W/m2
16:40 19.9 °C 16.5 °C 1005.6 hPa SW 6.4 km/h 27.4 km/h 81 % 0.0 mm 301 W/m2
16:45 19.6 °C 16.4 °C 1005.6 hPa WNW 16.1 km/h 29.0 km/h 82 % 0.0 mm 278 W/m2
16:50 19.9 °C 17.0 °C 1005.6 hPa WSW 4.8 km/h 29.0 km/h 83 % 0.0 mm 325 W/m2
16:55 20.7 °C 16.7 °C 1005.3 hPa West 11.3 km/h 24.1 km/h 78 % 0.0 mm 490 W/m2
17:00 19.7 °C 16.0 °C 1005.3 hPa West 19.3 km/h 30.6 km/h 79 % 0.0 mm 250 W/m2
17:10 19.9 °C 16.3 °C 1005.3 hPa West 19.3 km/h 27.4 km/h 80 % 0.0 mm 381 W/m2
17:15 20.3 °C 16.5 °C 1005.3 hPa WNW 6.4 km/h 27.4 km/h 79 % 0.0 mm 896 W/m2
17:20 20.7 °C 16.5 °C 1005.3 hPa West 14.5 km/h 30.6 km/h 77 % 0.0 mm 357 W/m2
17:25 20.8 °C 16.4 °C 1005.3 hPa WNW 14.5 km/h 30.6 km/h 76 % 0.0 mm 714 W/m2
17:30 20.8 °C 16.7 °C 1005.3 hPa West 9.7 km/h 30.6 km/h 77 % 0.0 mm 657 W/m2
17:35 20.6 °C 16.2 °C 1005.3 hPa West 19.3 km/h 33.8 km/h 76 % 0.0 mm 418 W/m2
17:40 20.2 °C 15.8 °C 1005.3 hPa NW 8.0 km/h 33.8 km/h 76 % 0.0 mm 362 W/m2
17:45 20.1 °C 16.2 °C 1005.3 hPa West 11.3 km/h 32.2 km/h 78 % 0.0 mm 450 W/m2
17:55 20.3 °C 16.4 °C 1005.0 hPa West 6.4 km/h 29.0 km/h 78 % 0.0 mm 754 W/m2
18:00 20.4 °C 16.5 °C 1005.0 hPa WNW 14.5 km/h 33.8 km/h 78 % 0.0 mm 703 W/m2
18:05 21.0 °C 16.8 °C 1005.0 hPa SW 4.8 km/h 33.8 km/h 77 % 0.0 mm 610 W/m2
18:10 21.1 °C 16.9 °C 1004.6 hPa West 19.3 km/h 25.7 km/h 77 % 0.0 mm 548 W/m2
18:15 20.7 °C 16.5 °C 1004.6 hPa WSW 11.3 km/h 25.7 km/h 77 % 0.0 mm 462 W/m2
18:20 20.3 °C 16.6 °C 1004.6 hPa WNW 9.7 km/h 25.7 km/h 79 % 0.0 mm 438 W/m2
18:25 20.3 °C 16.3 °C 1004.6 hPa WNW 6.4 km/h 27.4 km/h 78 % 0.0 mm 468 W/m2
18:30 20.2 °C 16.5 °C 1004.6 hPa WSW 4.8 km/h 27.4 km/h 79 % 0.0 mm 323 W/m2
18:40 20.0 °C 16.4 °C 1004.6 hPa WSW 17.7 km/h 27.4 km/h 80 % 0.0 mm 478 W/m2
18:45 20.1 °C 16.6 °C 1004.6 hPa WSW 11.3 km/h 27.4 km/h 80 % 0.0 mm 434 W/m2
18:50 20.3 °C 16.6 °C 1004.6 hPa WNW 20.9 km/h 27.4 km/h 79 % 0.0 mm 431 W/m2
18:55 20.2 °C 16.5 °C 1004.6 hPa WSW 12.9 km/h 27.4 km/h 79 % 0.0 mm 134 W/m2
19:00 19.7 °C 16.1 °C 1004.6 hPa West 12.9 km/h 22.5 km/h 80 % 0.0 mm 178 W/m2
19:05 19.6 °C 16.5 °C 1004.3 hPa WSW 6.4 km/h 22.5 km/h 82 % 0.0 mm 199 W/m2
19:10 19.9 °C 16.8 °C 1004.3 hPa WNW 3.2 km/h 22.5 km/h 82 % 0.0 mm 425 W/m2
19:15 20.2 °C 16.8 °C 1004.3 hPa WNW 12.9 km/h 27.4 km/h 81 % 0.0 mm 380 W/m2
19:25 20.4 °C 16.9 °C 1004.3 hPa West 17.7 km/h 25.7 km/h 80 % 0.0 mm 350 W/m2
19:30 20.4 °C 17.1 °C 1004.3 hPa West 17.7 km/h 25.7 km/h 81 % 0.0 mm 339 W/m2
19:35 20.4 °C 17.1 °C 1004.3 hPa WSW 8.0 km/h 22.5 km/h 81 % 0.0 mm 316 W/m2
19:40 20.3 °C 16.9 °C 1003.9 hPa West 6.4 km/h 19.3 km/h 81 % 0.0 mm 292 W/m2
19:45 20.2 °C 16.9 °C 1003.9 hPa WNW 9.7 km/h 17.7 km/h 81 % 0.0 mm 269 W/m2
19:50 20.0 °C 16.8 °C 1003.9 hPa NW 17.7 km/h 24.1 km/h 82 % 0.0 mm 251 W/m2
19:55 20.1 °C 16.9 °C 1003.9 hPa WNW 8.0 km/h 24.1 km/h 82 % 0.0 mm 236 W/m2
20:00 19.9 °C 16.8 °C 1003.9 hPa West 11.3 km/h 24.1 km/h 82 % 0.0 mm 221 W/m2
20:10 20.0 °C 16.8 °C 1003.9 hPa WSW 11.3 km/h 20.9 km/h 82 % 0.0 mm 207 W/m2
20:15 20.1 °C 16.9 °C 1003.9 hPa WNW 1.6 km/h 19.3 km/h 82 % 0.0 mm 195 W/m2
20:20 20.2 °C 16.9 °C 1003.9 hPa West 11.3 km/h 19.3 km/h 81 % 0.0 mm 160 W/m2
20:25 19.9 °C 16.8 °C 1003.9 hPa WNW 14.5 km/h 20.9 km/h 82 % 0.0 mm 142 W/m2
20:30 19.8 °C 16.8 °C 1003.9 hPa West 12.9 km/h 20.9 km/h 83 % 0.0 mm 127 W/m2
20:35 19.7 °C 16.7 °C 1003.9 hPa West 11.3 km/h 20.9 km/h 83 % 0.0 mm 67 W/m2
20:40 19.5 °C 16.7 °C 1003.9 hPa WNW 12.9 km/h 22.5 km/h 84 % 0.0 mm 62 W/m2
20:45 19.3 °C 16.7 °C 1003.9 hPa West 14.5 km/h 22.5 km/h 85 % 0.0 mm 46 W/m2
20:55 18.8 °C 16.4 °C 1003.9 hPa WNW 12.9 km/h 22.5 km/h 86 % 0.0 mm 42 W/m2
21:00 18.6 °C 16.3 °C 1003.9 hPa West 12.9 km/h 22.5 km/h 87 % 0.0 mm 47 W/m2
21:05 18.6 °C 16.3 °C 1003.9 hPa NNW 6.4 km/h 20.9 km/h 87 % 0.0 mm 40 W/m2
21:10 18.5 °C 16.5 °C 1003.9 hPa WNW 9.7 km/h 20.9 km/h 88 % 0.0 mm 37 W/m2
21:15 18.4 °C 16.5 °C 1003.6 hPa WNW 3.2 km/h 17.7 km/h 89 % 0.0 mm 30 W/m2
21:20 18.3 °C 16.5 °C 1003.6 hPa NW 4.8 km/h 17.7 km/h 89 % 0.0 mm 25 W/m2
21:25 18.3 °C 16.6 °C 1003.6 hPa West 6.4 km/h 17.7 km/h 90 % 0.0 mm 21 W/m2
21:30 18.2 °C 16.6 °C 1003.9 hPa WNW 8.0 km/h 17.7 km/h 90 % 0.0 mm 18 W/m2
21:40 18.1 °C 16.6 °C 1003.6 hPa WNW 14.5 km/h 20.9 km/h 91 % 0.0 mm 14 W/m2
21:45 18.1 °C 16.6 °C 1003.6 hPa WNW 16.1 km/h 20.9 km/h 91 % 0.0 mm 14 W/m2
21:50 18.1 °C 16.7 °C 1003.6 hPa West 6.4 km/h 20.9 km/h 92 % 0.0 mm 14 W/m2
21:55 18.1 °C 16.7 °C 1003.9 hPa West 11.3 km/h 19.3 km/h 92 % 0.0 mm 9 W/m2
22:00 18.0 °C 16.7 °C 1003.9 hPa West 6.4 km/h 19.3 km/h 92 % 0.0 mm 5 W/m2
22:05 17.9 °C 16.6 °C 1003.6 hPa WNW 3.2 km/h 16.1 km/h 92 % 0.0 mm 0 W/m2
22:10 17.9 °C 16.6 °C 1003.6 hPa WNW 12.9 km/h 16.1 km/h 92 % 0.0 mm 0 W/m2
22:15 17.9 °C 16.6 °C 1003.6 hPa West 6.4 km/h 19.3 km/h 92 % 0.0 mm 0 W/m2
22:25 17.9 °C 16.6 °C 1003.9 hPa WNW 8.0 km/h 17.7 km/h 92 % 0.0 mm 0 W/m2
22:30 17.9 °C 16.6 °C 1003.9 hPa West 12.9 km/h 17.7 km/h 92 % 0.0 mm 0 W/m2
22:35 17.9 °C 16.6 °C 1003.9 hPa WNW 9.7 km/h 17.7 km/h 92 % 0.0 mm 0 W/m2
22:40 17.9 °C 16.6 °C 1003.9 hPa West 4.8 km/h 16.1 km/h 92 % 0.0 mm 0 W/m2
22:45 17.8 °C 16.5 °C 1003.9 hPa WSW 8.0 km/h 12.9 km/h 92 % 0.0 mm 0 W/m2
22:50 17.8 °C 16.5 °C 1003.9 hPa Calm   16.1 km/h 92 % 0.0 mm 0 W/m2
22:55 17.8 °C 16.3 °C 1003.9 hPa NW 1.6 km/h 16.1 km/h 91 % 0.0 mm 0 W/m2
23:00 17.8 °C 16.3 °C 1003.9 hPa West 3.2 km/h 12.9 km/h 91 % 0.0 mm 0 W/m2
23:10 17.8 °C 16.5 °C 1003.9 hPa WSW 3.2 km/h 11.3 km/h 92 % 0.0 mm 0 W/m2
23:15 17.8 °C 16.5 °C 1003.9 hPa WNW 9.7 km/h 9.7 km/h 92 % 0.0 mm 0 W/m2
23:20 17.9 °C 16.6 °C 1003.9 hPa West 6.4 km/h 9.7 km/h 92 % 0.0 mm 0 W/m2
23:25 17.9 °C 16.6 °C 1003.9 hPa Calm   9.7 km/h 92 % 0.0 mm 0 W/m2
23:30 17.8 °C 16.3 °C 1003.9 hPa Calm   9.7 km/h 91 % 0.0 mm 0 W/m2
23:35 17.8 °C 16.5 °C 1003.9 hPa WSW 6.4 km/h 9.7 km/h 92 % 0.0 mm 0 W/m2
23:40 17.8 °C 16.3 °C 1003.9 hPa West 1.6 km/h 9.7 km/h 91 % 0.0 mm 0 W/m2
23:45 17.8 °C 16.3 °C 1003.9 hPa WSW 3.2 km/h 8.0 km/h 91 % 0.0 mm 0 W/m2
23:55 17.7 °C 16.2 °C 1003.9 hPa West 1.6 km/h 8.0 km/h 91 % 0.0 mm 0 W/m2
Avec l'autorisation de Weather Underground - 1.75 mb